Time;durP1;ratioP1;P1;durP2;ratioP2;P2;SDS_P1;SDS_P2;PMS_P1;PMS_P2;Temp;Humidity;BMP_temperature;BMP_pressure;BME280_temperature;BME280_humidity;BME280_pressure;Samples;Min_cycle;Max_cycle;Signal;HPM_P1;HPM_P2
2023/08/08 00:01:35;;;;;;;3.70;1.40;;;;;;;22.20;43.33;101311.72;5053060;28;20112;-64
2023/08/08 00:04:00;;;;;;;1.80;1.20;;;;;;;22.16;43.19;101310.44;5051737;28;20049;-65
2023/08/08 00:06:25;;;;;;;0.98;0.88;;;;;;;22.12;43.28;101300.94;5052612;28;20037;-65
2023/08/08 00:08:51;;;;;;;2.80;1.10;;;;;;;22.07;43.32;101297.94;5051346;28;20463;-65
2023/08/08 00:11:16;;;;;;;3.03;1.85;;;;;;;22.04;43.01;101299.19;5052860;28;20048;-65
2023/08/08 00:13:42;;;;;;;3.85;1.13;;;;;;;21.99;43.41;101284.41;5039628;28;20564;-66
2023/08/08 00:16:07;;;;;;;5.80;1.50;;;;;;;22.00;43.58;101294.28;5057818;28;20037;-66
2023/08/08 00:18:32;;;;;;;5.55;1.40;;;;;;;21.96;43.73;101296.56;5041493;28;20052;-65
2023/08/08 00:20:58;;;;;;;2.33;1.27;;;;;;;21.91;44.30;101287.25;5042415;28;20036;-66
2023/08/08 00:23:23;;;;;;;2.30;1.25;;;;;;;21.92;44.08;101291.66;5039057;28;20093;-65
2023/08/08 00:25:50;;;;;;;6.30;1.40;;;;;;;21.92;43.44;101280.75;5057443;28;20029;-65
2023/08/08 00:28:16;;;;;;;4.72;1.23;;;;;;;21.88;43.50;101274.00;5037706;28;20039;-67
2023/08/08 00:30:43;;;;;;;2.97;1.10;;;;;;;21.86;44.16;101279.59;5035180;28;20041;-65
2023/08/08 00:33:08;;;;;;;2.58;1.10;;;;;;;21.87;43.76;101284.06;5051176;28;20136;-65
2023/08/08 00:35:33;;;;;;;3.03;1.30;;;;;;;21.86;44.05;101279.59;5034414;28;20539;-65
2023/08/08 00:37:59;;;;;;;2.70;1.15;;;;;;;21.84;43.78;101287.16;5052465;28;20052;-65
2023/08/08 00:40:24;;;;;;;2.45;1.10;;;;;;;21.87;44.22;101285.94;5034756;28;20408;-66
2023/08/08 00:42:50;;;;;;;2.88;1.10;;;;;;;21.84;44.29;101280.84;5052580;28;20377;-65
2023/08/08 00:45:16;;;;;;;3.63;1.38;;;;;;;21.84;44.68;101281.69;5051289;28;20154;-65
2023/08/08 00:47:41;;;;;;;3.35;1.20;;;;;;;21.82;43.92;101277.47;5051299;28;20033;-65
2023/08/08 00:50:07;;;;;;;2.47;0.93;;;;;;;21.83;44.53;101273.72;5052412;28;20025;-65
2023/08/08 00:52:32;;;;;;;3.63;0.85;;;;;;;21.84;43.88;101281.69;5034534;28;20561;-65
2023/08/08 00:54:59;;;;;;;2.78;0.98;;;;;;;21.85;44.48;101279.81;5052319;28;20024;-65
2023/08/08 00:57:24;;;;;;;7.18;1.48;;;;;;;21.83;44.45;101269.06;5052328;28;20060;-65
2023/08/08 00:59:49;;;;;;;4.07;1.25;;;;;;;21.84;44.53;101269.94;5051261;28;20488;-65
2023/08/08 01:02:15;;;;;;;1.65;0.70;;;;;;;21.83;44.36;101281.91;5052209;28;20029;-65
2023/08/08 01:04:40;;;;;;;2.10;0.88;;;;;;;21.84;44.88;101280.84;5050847;28;20120;-65
2023/08/08 01:07:22;;;;;;;1.95;1.30;;;;;;;21.83;44.44;101290.06;5034677;28;20392;-65
2023/08/08 01:10:06;;;;;;;5.07;0.80;;;;;;;21.84;44.10;101286.28;5034498;28;20042;-65
2023/08/08 01:12:32;;;;;;;2.92;1.10;;;;;;;21.82;44.17;101289.22;5051065;28;20037;-65
2023/08/08 01:14:58;;;;;;;5.97;1.17;;;;;;;21.79;45.18;101283.28;5050998;28;20029;-64
2023/08/08 01:17:24;;;;;;;0.98;0.80;;;;;;;21.77;44.34;101275.31;5050674;28;20055;-64
2023/08/08 01:19:50;;;;;;;5.97;1.30;;;;;;;21.76;45.13;101283.69;5055290;28;20021;-65
2023/08/08 01:22:30;;;;;;;3.10;1.02;;;;;;;21.72;44.96;101264.09;5054687;28;20041;-65
2023/08/08 01:24:56;;;;;;;2.67;1.25;;;;;;;21.69;44.67;101260.94;5054478;28;20512;-64
2023/08/08 01:27:22;;;;;;;4.80;1.33;;;;;;;21.71;44.50;101264.31;5054354;28;20036;-65
2023/08/08 01:29:47;;;;;;;2.80;0.90;;;;;;;21.69;45.21;101267.22;5054142;28;20029;-65
2023/08/08 01:32:13;;;;;;;2.55;0.75;;;;;;;21.67;44.77;101266.56;5054372;28;20080;-65
2023/08/08 01:34:38;;;;;;;3.50;0.73;;;;;;;21.66;45.41;101264.91;5055463;28;20092;-65
2023/08/08 01:37:16;;;;;;;3.53;1.10;;;;;;;21.66;45.37;101264.91;5054249;28;20032;-65
2023/08/08 01:39:42;;;;;;;1.70;0.90;;;;;;;21.65;44.86;101259.63;5055826;28;20048;-64
2023/08/08 01:42:08;;;;;;;1.63;1.00;;;;;;;21.66;44.89;101272.22;5053962;28;20072;-65
2023/08/08 01:44:34;;;;;;;1.73;0.85;;;;;;;21.64;44.87;101260.66;5054323;28;20033;-64
2023/08/08 01:47:00;;;;;;;2.42;1.50;;;;;;;21.63;44.94;101269.88;5037501;28;20033;-65
2023/08/08 01:49:27;;;;;;;5.03;1.10;;;;;;;21.63;44.67;101273.47;5037369;28;20102;-64
2023/08/08 01:51:53;;;;;;;5.55;1.27;;;;;;;21.60;45.72;101267.53;5052425;28;20488;-65
2023/08/08 01:54:19;;;;;;;2.35;0.80;;;;;;;21.57;45.57;101270.63;5054067;28;20021;-64
2023/08/08 01:56:45;;;;;;;1.77;1.15;;;;;;;21.58;45.00;101275.06;5053873;28;20092;-64
2023/08/08 01:59:10;;;;;;;4.47;1.40;;;;;;;21.55;44.94;101270.84;5053622;28;20472;-63
2023/08/08 02:01:35;;;;;;;4.25;0.70;;;;;;;21.57;45.85;101278.81;5053574;28;20029;-63
2023/08/08 02:04:01;;;;;;;2.03;1.10;;;;;;;21.54;45.49;101268.28;5054760;28;20021;-64
2023/08/08 02:06:26;;;;;;;5.22;0.98;;;;;;;21.49;44.98;101260.69;5053228;28;20021;-64
2023/08/08 02:08:51;;;;;;;1.52;1.05;;;;;;;21.49;45.45;101260.69;5053539;28;20032;-64
2023/08/08 02:11:18;;;;;;;4.15;1.00;;;;;;;21.47;45.12;101262.72;5053548;28;20526;-64
2023/08/08 02:13:43;;;;;;;5.38;1.02;;;;;;;21.43;45.35;101262.28;5054762;28;20471;-64
2023/08/08 02:16:08;;;;;;;2.28;1.05;;;;;;;21.46;45.59;101261.91;5053573;28;20051;-63
2023/08/08 02:18:34;;;;;;;2.13;0.82;;;;;;;21.43;45.51;101256.84;5053414;28;20543;-64
2023/08/08 02:20:59;;;;;;;3.08;0.98;;;;;;;21.42;45.32;101249.69;5053685;28;20029;-63
2023/08/08 02:23:26;;;;;;;7.93;1.83;;;;;;;21.42;45.43;101257.88;5053275;28;20025;-63
2023/08/08 02:25:51;;;;;;;4.15;1.10;;;;;;;21.40;45.80;101240.00;5054778;28;20036;-63
2023/08/08 02:28:17;;;;;;;4.13;1.13;;;;;;;21.40;46.06;101251.75;5054466;28;20384;-64
2023/08/08 02:30:42;;;;;;;2.63;1.10;;;;;;;21.41;45.73;101247.97;5036354;28;20020;-64
2023/08/08 02:33:07;;;;;;;4.95;1.20;;;;;;;21.38;46.08;101240.19;5053212;28;20563;-64
2023/08/08 02:35:33;;;;;;;5.93;1.00;;;;;;;21.38;46.27;101236.63;5053195;28;20035;-64
2023/08/08 02:37:58;;;;;;;4.90;1.05;;;;;;;21.37;45.98;101240.38;5054407;28;20086;-63
2023/08/08 02:40:24;;;;;;;7.38;1.10;;;;;;;21.32;45.71;101221.03;5052887;28;20028;-64
2023/08/08 02:42:50;;;;;;;4.20;1.20;;;;;;;21.29;46.36;101233.16;5054181;28;20020;-64
2023/08/08 02:45:15;;;;;;;4.15;1.10;;;;;;;21.25;45.62;101230.97;5052966;28;20021;-64
2023/08/08 02:47:41;;;;;;;3.75;0.95;;;;;;;21.20;46.32;101220.66;5054023;28;20021;-64
2023/08/08 02:50:06;;;;;;;1.92;1.20;;;;;;;21.21;46.35;101219.63;5054106;28;20358;-64
2023/08/08 02:52:32;;;;;;;9.85;1.45;;;;;;;21.18;46.04;101208.25;5036366;28;20037;-63
2023/08/08 02:54:57;;;;;;;4.75;1.48;;;;;;;21.20;46.04;101217.94;5052901;28;20027;-65
2023/08/08 02:57:23;;;;;;;3.13;0.93;;;;;;;21.17;46.16;101206.56;5053618;28;20400;-65
2023/08/08 02:59:50;;;;;;;6.00;0.98;;;;;;;21.15;46.66;101201.31;5052709;28;20017;-63
2023/08/08 03:02:15;;;;;;;7.00;1.38;;;;;;;21.15;47.15;101204.03;5052969;28;20536;-64
2023/08/08 03:04:41;;;;;;;5.72;1.75;;;;;;;21.14;47.20;101205.06;5054085;28;20152;-64
2023/08/08 03:07:07;;;;;;;2.47;1.08;;;;;;;21.13;47.02;101197.94;5053469;28;20051;-64
2023/08/08 03:09:32;;;;;;;4.18;1.42;;;;;;;21.13;46.58;101206.13;5053484;28;20070;-64
2023/08/08 03:11:57;;;;;;;3.72;1.42;;;;;;;21.13;46.78;101210.72;5052374;28;20044;-64
2023/08/08 03:14:23;;;;;;;5.10;1.83;;;;;;;21.13;46.89;101208.00;5035855;28;20051;-65
2023/08/08 03:16:48;;;;;;;4.45;1.60;;;;;;;21.08;47.14;101211.25;5052354;28;20112;-64
2023/08/08 03:19:13;;;;;;;4.05;1.60;;;;;;;21.05;47.66;101208.88;5035622;28;20032;-65
2023/08/08 03:21:39;;;;;;;4.78;1.90;;;;;;;21.04;47.18;101195.44;5053686;28;20033;-64
2023/08/08 03:24:04;;;;;;;12.80;2.38;;;;;;;21.02;47.06;101208.44;5052698;28;20033;-64
2023/08/08 03:26:30;;;;;;;10.77;2.88;;;;;;;21.01;47.14;101202.13;5052304;28;20059;-65
2023/08/08 03:28:55;;;;;;;3.83;1.33;;;;;;;21.01;47.49;101198.56;5051278;28;20037;-64
2023/08/08 03:31:22;;;;;;;3.92;1.35;;;;;;;20.98;47.83;101191.59;5053325;28;20115;-65
2023/08/08 03:33:47;;;;;;;4.38;1.10;;;;;;;20.95;46.85;101191.97;5053493;28;20032;-64
2023/08/08 03:36:13;;;;;;;6.80;1.40;;;;;;;20.99;47.07;101193.31;5052122;28;20029;-64
2023/08/08 03:38:38;;;;;;;2.58;1.40;;;;;;;20.96;47.55;101199.13;5051903;28;20079;-64
2023/08/08 03:41:06;;;;;;;6.15;1.63;;;;;;;20.94;47.61;101200.34;5052790;28;20037;-64
2023/08/08 03:43:31;;;;;;;6.15;1.73;;;;;;;20.85;47.63;101191.41;5053365;28;20036;-65
2023/08/08 03:45:57;;;;;;;4.00;1.52;;;;;;;20.87;47.29;101200.25;5053067;28;20033;-64
2023/08/08 03:48:23;;;;;;;8.30;1.35;;;;;;;20.87;47.76;101194.78;5052187;28;20112;-65
2023/08/08 03:50:48;;;;;;;4.40;1.63;;;;;;;20.87;47.56;101197.53;5051762;28;20037;-65
2023/08/08 03:53:14;;;;;;;11.15;2.00;;;;;;;20.87;48.14;101203.81;5053106;28;20082;-64
2023/08/08 03:55:39;;;;;;;7.55;1.67;;;;;;;20.86;47.45;101193.09;5053221;28;20056;-64
2023/08/08 03:58:08;;;;;;;6.35;1.67;;;;;;;20.91;47.62;101209.72;5051493;28;20492;-64
2023/08/08 04:00:33;;;;;;;3.17;1.50;;;;;;;20.92;47.71;101209.53;5051945;28;20373;-64
2023/08/08 04:02:58;;;;;;;4.65;1.60;;;;;;;20.91;47.66;101215.16;5053190;28;20036;-64
2023/08/08 04:05:24;;;;;;;3.17;1.27;;;;;;;20.95;48.03;101205.59;5051840;28;20390;-64
2023/08/08 04:07:50;;;;;;;6.25;1.27;;;;;;;20.97;47.44;101206.25;5051862;28;20021;-65
2023/08/08 04:10:17;;;;;;;6.50;1.38;;;;;;;20.96;48.16;101203.72;5052731;28;20037;-64
2023/08/08 04:12:42;;;;;;;6.65;1.70;;;;;;;21.01;48.21;101199.41;5052865;28;20025;-65
2023/08/08 04:15:09;;;;;;;4.78;1.88;;;;;;;21.02;47.50;101198.34;5052843;28;20047;-65
2023/08/08 04:17:34;;;;;;;6.00;1.63;;;;;;;21.01;47.78;101191.22;5052906;28;20029;-65
2023/08/08 04:20:00;;;;;;;5.53;1.90;;;;;;;20.96;47.23;101188.22;5051514;28;20028;-64
2023/08/08 04:22:25;;;;;;;4.78;1.30;;;;;;;20.98;47.96;101180.72;5034738;28;20036;-64
2023/08/08 04:24:51;;;;;;;5.07;1.60;;;;;;;21.04;47.77;101190.00;5052641;28;20057;-64
2023/08/08 04:27:16;;;;;;;5.47;1.92;;;;;;;21.02;47.44;101192.09;5052659;28;20492;-63
2023/08/08 04:29:42;;;;;;;3.97;2.35;;;;;;;21.02;47.83;101192.09;5051592;28;20098;-64
2023/08/08 04:32:07;;;;;;;8.02;1.65;;;;;;;21.00;48.64;101194.97;5051483;28;20099;-63
2023/08/08 04:34:32;;;;;;;9.18;1.48;;;;;;;20.99;47.80;101187.84;5034834;28;20029;-64
2023/08/08 04:36:58;;;;;;;7.82;1.95;;;;;;;20.96;48.05;101185.50;5050485;28;20045;-64
2023/08/08 04:39:23;;;;;;;8.25;1.63;;;;;;;20.99;48.34;101182.41;5052200;28;20029;-64
2023/08/08 04:41:48;;;;;;;7.20;1.35;;;;;;;21.01;47.73;101190.38;5054576;28;20037;-64
2023/08/08 04:44:14;;;;;;;11.40;1.98;;;;;;;21.01;48.38;101184.94;5052934;28;20067;-64
2023/08/08 04:46:40;;;;;;;4.50;1.17;;;;;;;21.03;48.45;101188.31;5053031;28;20064;-64
2023/08/08 04:49:05;;;;;;;9.25;2.08;;;;;;;21.00;48.73;101192.25;5053546;28;20112;-64
2023/08/08 04:51:31;;;;;;;6.85;1.60;;;;;;;21.01;47.92;101188.50;5052332;28;20066;-64
2023/08/08 04:53:56;;;;;;;5.53;1.33;;;;;;;21.04;47.92;101195.44;5054798;28;20112;-64
2023/08/08 04:56:21;;;;;;;4.53;1.60;;;;;;;21.07;47.93;101195.97;5056173;28;20025;-63
2023/08/08 04:58:47;;;;;;;3.28;1.33;;;;;;;21.09;48.48;101188.44;5057512;28;20025;-64
2023/08/08 05:01:14;;;;;;;10.10;1.48;;;;;;;21.15;48.41;101189.56;5039308;28;20031;-64
2023/08/08 05:03:40;;;;;;;3.13;1.33;;;;;;;21.15;48.52;101190.41;5056299;28;20419;-64
2023/08/08 05:06:05;;;;;;;8.65;2.47;;;;;;;21.12;48.64;101185.34;5054862;28;20053;-63
2023/08/08 05:08:31;;;;;;;7.43;1.60;;;;;;;21.14;48.50;101191.44;5054918;28;20459;-64
2023/08/08 05:10:57;;;;;;;6.55;1.83;;;;;;;21.17;48.84;101184.75;5054839;28;20055;-63
2023/08/08 05:13:25;;;;;;;4.35;1.80;;;;;;;21.20;48.53;101184.38;5038016;28;20103;-64
2023/08/08 05:15:51;;;;;;;9.43;1.33;;;;;;;21.22;48.03;101180.44;5036379;28;20092;-64
2023/08/08 05:18:16;;;;;;;7.75;1.60;;;;;;;21.30;48.50;101188.50;5055827;28;20040;-64
2023/08/08 05:20:41;;;;;;;7.85;1.23;;;;;;;21.39;48.19;101183.78;5054563;28;20036;-64
2023/08/08 05:23:07;;;;;;;4.45;1.45;;;;;;;21.43;47.96;101185.13;5054273;28;20041;-64
2023/08/08 05:25:32;;;;;;;4.45;1.50;;;;;;;21.41;48.87;101188.00;5055913;28;20057;-64
2023/08/08 05:27:58;;;;;;;6.05;1.55;;;;;;;21.49;48.43;101192.53;5054362;28;20029;-64
2023/08/08 05:30:24;;;;;;;5.82;1.17;;;;;;;21.52;48.42;101194.03;5055713;28;20121;-65
2023/08/08 05:32:49;;;;;;;3.85;1.23;;;;;;;21.64;48.19;101187.03;5055505;28;20060;-64
2023/08/08 05:35:14;;;;;;;6.22;1.40;;;;;;;21.78;47.50;101188.84;5055769;28;20453;-64
2023/08/08 05:37:40;;;;;;;10.80;1.83;;;;;;;21.85;47.83;101190.66;5055307;28;20029;-64
2023/08/08 05:40:06;;;;;;;3.13;1.40;;;;;;;21.98;48.18;101189.94;5055477;28;20040;-66
2023/08/08 05:42:32;;;;;;;5.60;1.48;;;;;;;22.04;47.30;101189.19;5055586;28;20029;-65
2023/08/08 05:44:57;;;;;;;2.65;1.25;;;;;;;22.11;47.59;101179.16;5055246;28;20082;-65
2023/08/08 05:47:23;;;;;;;3.33;1.10;;;;;;;22.19;48.25;101186.38;5053058;28;20033;-64
2023/08/08 05:49:48;;;;;;;10.18;1.33;;;;;;;22.26;48.18;101182.66;5055331;28;20041;-65
2023/08/08 05:52:14;;;;;;;7.72;1.60;;;;;;;22.39;47.71;101199.16;5055689;28;20041;-64
2023/08/08 05:54:39;;;;;;;4.28;1.55;;;;;;;22.57;46.99;101205.00;5054161;28;20029;-63
2023/08/08 05:57:05;;;;;;;4.20;1.65;;;;;;;22.71;47.32;101202.38;5055104;28;20071;-65
2023/08/08 05:59:30;;;;;;;11.80;1.65;;;;;;;22.91;46.83;101198.75;5037082;28;20079;-65
2023/08/08 06:01:56;;;;;;;9.32;2.13;;;;;;;23.13;47.23;101197.63;5037395;28;20064;-64
2023/08/08 06:04:21;;;;;;;6.20;1.50;;;;;;;23.19;47.27;101198.72;5054395;28;20098;-64
2023/08/08 06:06:48;;;;;;;4.90;1.58;;;;;;;23.34;46.94;101193.13;5037071;28;20059;-65
2023/08/08 06:09:15;;;;;;;4.20;1.65;;;;;;;23.55;46.54;101203.94;5053358;28;20485;-64
2023/08/08 06:11:40;;;;;;;4.57;1.58;;;;;;;23.69;46.34;101203.81;5053395;28;20044;-65
2023/08/08 06:14:05;;;;;;;6.10;1.92;;;;;;;23.47;47.02;101207.72;5053438;28;20075;-64
2023/08/08 06:16:31;;;;;;;10.48;2.05;;;;;;;23.39;46.90;101207.88;5057048;28;20025;-65
2023/08/08 06:18:56;;;;;;;9.23;1.55;;;;;;;23.64;46.28;101198.09;5059063;28;20107;-65
2023/08/08 06:21:21;;;;;;;8.30;1.98;;;;;;;23.84;45.91;101202.78;5043820;28;20492;-65
2023/08/08 06:23:47;;;;;;;9.60;2.17;;;;;;;24.00;45.99;101210.63;5061775;28;20531;-66
2023/08/08 06:26:13;;;;;;;4.07;1.58;;;;;;;24.11;45.76;101205.41;5060364;28;20113;-66
2023/08/08 06:28:38;;;;;;;5.47;1.88;;;;;;;24.25;46.06;101207.09;5053004;28;20037;-65
2023/08/08 06:31:04;;;;;;;9.85;2.03;;;;;;;24.37;45.72;101201.84;5053098;28;20029;-65
2023/08/08 06:33:29;;;;;;;8.20;1.70;;;;;;;24.49;45.65;101208.38;5052976;28;20622;-65
2023/08/08 06:35:56;;;;;;;7.95;2.17;;;;;;;24.61;45.30;101214.91;5036552;28;20036;-65
2023/08/08 06:38:21;;;;;;;8.68;1.70;;;;;;;24.68;45.20;101210.25;5052802;28;20083;-65
2023/08/08 06:40:46;;;;;;;3.88;1.95;;;;;;;24.59;45.73;101217.03;5019699;28;20033;-66
2023/08/08 06:43:12;;;;;;;7.63;1.67;;;;;;;24.70;45.29;101213.66;5053055;28;20064;-65
2023/08/08 06:45:38;;;;;;;9.63;2.10;;;;;;;25.02;44.79;101208.34;5052749;28;20518;-65
2023/08/08 06:48:04;;;;;;;6.15;2.60;;;;;;;25.07;44.72;101208.56;5019516;28;20033;-65
2023/08/08 06:50:29;;;;;;;8.02;2.00;;;;;;;25.05;44.83;101210.66;5052598;28;20037;-65
2023/08/08 06:52:55;;;;;;;4.50;2.08;;;;;;;25.14;44.76;101215.72;5053917;28;20124;-66
2023/08/08 06:55:20;;;;;;;3.75;2.08;;;;;;;25.07;44.50;101203.91;5052608;28;20029;-65
2023/08/08 06:57:46;;;;;;;5.90;2.15;;;;;;;25.04;44.84;101222.69;5052235;28;20063;-65
2023/08/08 07:00:12;;;;;;;4.70;1.92;;;;;;;25.06;44.59;101213.19;5019529;28;20028;-66
2023/08/08 07:02:38;;;;;;;5.95;1.83;;;;;;;24.98;44.54;101223.56;5052338;28;20082;-66
2023/08/08 07:05:03;;;;;;;13.15;2.45;;;;;;;25.02;44.43;101213.81;5052278;28;20049;-65
2023/08/08 07:07:30;;;;;;;8.75;2.20;;;;;;;25.00;44.64;101215.94;5051971;28;20025;-65
2023/08/08 07:09:56;;;;;;;4.30;1.60;;;;;;;25.11;44.40;101215.28;5052136;28;20057;-65
2023/08/08 07:12:23;;;;;;;10.25;1.90;;;;;;;25.14;44.62;101221.19;5052171;28;20045;-65
2023/08/08 07:14:48;;;;;;;8.90;1.90;;;;;;;25.10;44.74;101219.91;5052070;28;20059;-65
2023/08/08 07:17:14;;;;;;;6.97;1.92;;;;;;;25.09;44.65;101211.94;5051475;28;20496;-66
2023/08/08 07:19:40;;;;;;;11.43;2.33;;;;;;;25.03;44.72;101215.53;5053318;28;20588;-66
2023/08/08 07:22:06;;;;;;;6.80;2.10;;;;;;;25.05;44.36;101210.66;5035507;28;20523;-65
2023/08/08 07:24:31;;;;;;;7.75;3.03;;;;;;;25.13;44.29;101213.16;5051956;28;20037;-65
2023/08/08 07:26:58;;;;;;;5.13;1.60;;;;;;;25.17;44.18;101203.47;5053206;28;20569;-65
2023/08/08 07:29:24;;;;;;;10.38;2.35;;;;;;;25.18;44.50;101210.66;5053166;28;20095;-65
2023/08/08 07:31:52;;;;;;;7.75;2.30;;;;;;;25.13;44.08;101218.66;5051990;28;20032;-65
2023/08/08 07:34:17;;;;;;;5.15;2.10;;;;;;;25.20;44.29;101211.25;5034989;28;20037;-65
2023/08/08 07:36:43;;;;;;;6.05;1.90;;;;;;;25.22;44.27;101199.03;5035128;28;20033;-64
2023/08/08 07:39:08;;;;;;;4.97;1.65;;;;;;;25.44;44.00;101205.06;5051808;28;20503;-64
2023/08/08 07:41:34;;;;;;;4.05;2.15;;;;;;;25.26;44.37;101202.19;5035297;28;20131;-64
2023/08/08 07:44:00;;;;;;;4.15;2.13;;;;;;;25.30;44.25;101197.94;5051727;28;20041;-64
2023/08/08 07:46:25;;;;;;;4.22;2.08;;;;;;;25.52;44.20;101196.59;5035054;28;20044;-66
2023/08/08 07:48:50;;;;;;;7.45;2.10;;;;;;;25.60;44.08;101193.59;5051609;28;20484;-65
2023/08/08 07:51:16;;;;;;;3.80;1.35;;;;;;;25.62;43.92;101191.50;5035601;28;20044;-67
2023/08/08 07:53:41;;;;;;;8.63;1.70;;;;;;;25.60;43.67;101188.13;5052123;28;20048;-65
2023/08/08 07:56:07;;;;;;;6.05;1.55;;;;;;;25.56;44.15;101197.03;5051439;28;20040;-65
2023/08/08 07:58:32;;;;;;;10.45;1.52;;;;;;;25.51;43.72;101194.94;5051538;28;20507;-65
2023/08/08 08:00:59;;;;;;;5.72;2.17;;;;;;;25.56;43.88;101200.59;5034864;28;20037;-65
2023/08/08 08:03:25;;;;;;;8.52;1.90;;;;;;;25.64;44.23;101202.25;5051602;28;20082;-65
2023/08/08 08:05:51;;;;;;;4.25;2.17;;;;;;;25.72;43.58;101197.34;5035095;28;20036;-65
2023/08/08 08:08:16;;;;;;;7.57;1.75;;;;;;;25.83;43.77;101187.56;5035661;28;20460;-65
2023/08/08 08:10:41;;;;;;;8.70;2.10;;;;;;;25.86;43.58;101193.47;5050930;28;20053;-65
2023/08/08 08:13:07;;;;;;;6.85;1.90;;;;;;;25.87;43.41;101200.66;5051239;28;20854;-65
2023/08/08 08:15:33;;;;;;;5.78;2.08;;;;;;;25.87;43.65;101211.66;5051144;28;20037;-66
2023/08/08 08:17:58;;;;;;;4.40;1.90;;;;;;;25.90;43.81;101189.25;5052829;28;20404;-66
2023/08/08 08:20:25;;;;;;;4.70;1.92;;;;;;;26.05;43.00;101198.00;5052839;28;20032;-66
2023/08/08 08:22:50;;;;;;;5.07;1.98;;;;;;;26.08;43.23;101195.88;5051513;28;20082;-66
2023/08/08 08:25:15;;;;;;;3.30;1.95;;;;;;;25.99;43.30;101192.56;5034629;28;20025;-65
2023/08/08 08:27:41;;;;;;;6.45;2.15;;;;;;;26.03;43.72;101202.88;5052761;28;20040;-66
2023/08/08 08:30:09;;;;;;;6.05;1.55;;;;;;;26.17;42.99;101194.56;5038612;28;20045;-66
2023/08/08 08:32:36;;;;;;;4.68;1.95;;;;;;;26.32;43.09;101190.47;5056577;28;20500;-66
2023/08/08 08:35:03;;;;;;;5.00;1.70;;;;;;;26.46;42.94;101189.28;5055428;28;20037;-65
2023/08/08 08:37:29;;;;;;;5.95;2.17;;;;;;;26.64;43.00;101202.22;5056458;28;20033;-66
2023/08/08 08:39:54;;;;;;;8.25;1.80;;;;;;;26.86;42.09;101195.25;5055151;28;20029;-66
2023/08/08 08:42:20;;;;;;;4.20;1.65;;;;;;;27.21;41.62;101191.94;5056602;28;20056;-65
2023/08/08 08:44:46;;;;;;;3.67;1.15;;;;;;;27.33;41.98;101192.88;5055438;28;20041;-65
2023/08/08 08:47:12;;;;;;;5.85;1.92;;;;;;;27.30;42.28;101185.06;5038594;28;20086;-66
2023/08/08 08:49:39;;;;;;;2.75;1.33;;;;;;;27.30;42.21;101196.91;5038257;28;20037;-65
2023/08/08 08:52:05;;;;;;;3.00;1.73;;;;;;;27.30;41.61;101201.56;5056163;28;20119;-66
2023/08/08 08:54:32;;;;;;;8.00;2.30;;;;;;;27.19;41.63;101190.25;5056084;28;20160;-66
2023/08/08 08:56:58;;;;;;;8.60;1.95;;;;;;;27.26;41.56;101194.84;5054828;28;20037;-66
2023/08/08 08:59:24;;;;;;;11.70;2.28;;;;;;;27.23;41.78;101200.78;5054907;28;20025;-66
2023/08/08 09:01:50;;;;;;;2.70;1.40;;;;;;;27.16;41.37;101198.97;5054530;28;20025;-66
2023/08/08 09:04:19;;;;;;;2.45;1.30;;;;;;;27.14;42.18;101192.84;5038005;28;20044;-66
2023/08/08 09:06:45;;;;;;;4.63;1.75;;;;;;;27.28;41.43;101188.03;5055924;28;20515;-66
2023/08/08 09:09:12;;;;;;;5.95;3.00;;;;;;;27.30;41.85;101185.06;5054539;28;20539;-66
2023/08/08 09:11:39;;;;;;;2.33;1.60;;;;;;;27.30;41.47;101190.56;5054443;28;20075;-66
2023/08/08 09:14:16;;;;;;;3.55;1.52;;;;;;;27.23;41.58;101189.78;5037967;28;20033;-66
2023/08/08 09:16:42;;;;;;;3.63;1.98;;;;;;;27.32;41.58;101194.78;5053973;28;20053;-66
2023/08/08 09:19:08;;;;;;;6.95;2.17;;;;;;;27.49;41.49;101197.78;5054280;28;20013;-66
2023/08/08 09:21:33;;;;;;;8.55;2.22;;;;;;;27.62;41.09;101195.69;5037742;28;20033;-65
2023/08/08 09:23:58;;;;;;;2.72;1.02;;;;;;;27.53;40.48;101196.22;5054429;28;20098;-65
2023/08/08 09:26:24;;;;;;;10.25;1.73;;;;;;;27.36;41.69;101195.16;5037737;28;20124;-66
2023/08/08 09:28:50;;;;;;;9.48;1.92;;;;;;;27.22;41.87;101188.13;5054241;28;20393;-65
2023/08/08 09:31:16;;;;;;;4.18;1.95;;;;;;;27.10;41.60;101193.53;5054088;28;20119;-65
2023/08/08 09:33:43;;;;;;;11.45;1.60;;;;;;;26.94;41.78;101197.72;5054013;28;20103;-65
2023/08/08 09:36:16;;;;;;;5.10;1.55;;;;;;;26.81;41.37;101192.38;5055203;28;20070;-66
2023/08/08 09:38:41;;;;;;;6.57;1.90;;;;;;;26.68;41.57;101192.47;5053252;28;20052;-66
2023/08/08 09:41:06;;;;;;;5.97;1.75;;;;;;;26.60;41.78;101196.31;5054058;28;20399;-66
2023/08/08 09:43:32;;;;;;;6.80;1.35;;;;;;;26.50;41.77;101184.16;5055341;28;20025;-65
2023/08/08 09:45:58;;;;;;;7.70;2.15;;;;;;;26.43;41.71;101188.88;5054026;28;20033;-65
2023/08/08 09:48:30;;;;;;;3.28;1.50;;;;;;;26.33;41.76;101188.53;5052654;28;20057;-65
2023/08/08 09:50:55;;;;;;;6.38;1.50;;;;;;;26.21;41.66;101184.84;5053631;28;20120;-65
2023/08/08 09:53:21;;;;;;;2.90;1.52;;;;;;;26.13;42.05;101182.34;5037239;28;20519;-65
2023/08/08 09:55:47;;;;;;;8.50;1.75;;;;;;;26.02;41.72;101192.94;5055087;28;20129;-65
2023/08/08 09:58:12;;;;;;;3.80;1.40;;;;;;;25.92;41.91;101202.72;5054006;28;20115;-64
2023/08/08 10:00:38;;;;;;;7.80;1.40;;;;;;;25.83;41.98;101196.66;5053520;28;20039;-65
2023/08/08 10:03:04;;;;;;;5.53;1.98;;;;;;;25.79;42.15;101195.44;5053327;28;20096;-66
2023/08/08 10:05:30;;;;;;;6.75;1.65;;;;;;;25.83;42.21;101199.41;5054968;28;20032;-66
2023/08/08 10:07:56;;;;;;;3.22;2.10;;;;;;;25.90;41.82;101192.00;5053412;28;20079;-64
2023/08/08 10:10:22;;;;;;;6.50;1.50;;;;;;;25.94;41.97;101197.84;5031231;28;20056;-64
2023/08/08 10:12:48;;;;;;;6.25;2.40;;;;;;;26.01;41.25;101193.19;5033582;28;20034;-64
2023/08/08 10:15:13;;;;;;;6.32;1.83;;;;;;;26.11;41.55;101189.94;5039205;28;20033;-65
2023/08/08 10:17:39;;;;;;;7.40;1.30;;;;;;;26.26;41.02;101182.25;5053509;28;20025;-66
2023/08/08 10:20:12;;;;;;;2.90;1.00;;;;;;;26.42;41.19;101171.56;5053423;28;20032;-69
2023/08/08 10:22:46;;;;;;;4.97;1.65;;;;;;;26.63;41.02;101175.81;5053427;28;20442;-66
2023/08/08 10:25:43;;;;;;;3.97;1.83;;;;;;;26.79;40.60;101167.00;5052763;28;20033;-65
2023/08/08 10:28:14;;;;;;;2.53;1.35;;;;;;;26.94;41.08;101170.22;5051609;28;20037;-66
2023/08/08 10:30:42;;;;;;;4.38;1.35;;;;;;;27.23;39.72;101173.28;5054204;28;20044;-69
2023/08/08 10:33:18;;;;;;;5.18;1.83;;;;;;;27.45;39.54;101166.25;5054249;28;20033;-64
2023/08/08 10:35:56;;;;;;;2.42;1.33;;;;;;;27.78;39.84;101171.34;5036450;28;20514;-66
2023/08/08 10:38:22;;;;;;;3.35;1.08;;;;;;;28.28;38.79;101179.03;5052990;28;20039;-66
2023/08/08 10:40:48;;;;;;;2.65;1.13;;;;;;;28.55;38.24;101192.41;5054496;28;20056;-65
2023/08/08 10:43:13;;;;;;;2.65;1.33;;;;;;;28.65;38.74;101192.66;5052815;28;20492;-66
2023/08/08 10:45:42;;;;;;;3.05;1.33;;;;;;;29.02;38.46;101180.31;5052870;28;20082;-65
2023/08/08 10:48:09;;;;;;;2.17;1.15;;;;;;;29.40;37.81;101177.84;5052695;28;20033;-66
2023/08/08 10:50:38;;;;;;;4.68;1.17;;;;;;;29.39;37.93;101180.88;5052477;28;20057;-66
2023/08/08 10:53:03;;;;;;;4.45;1.33;;;;;;;29.30;38.08;101172.13;5052681;28;20037;-66
2023/08/08 10:55:34;;;;;;;3.13;1.15;;;;;;;29.62;36.82;101174.44;5052716;28;20033;-65
2023/08/08 10:58:02;;;;;;;2.90;0.90;;;;;;;29.58;37.65;101173.25;5035903;28;20522;-66
2023/08/08 11:00:30;;;;;;;4.60;1.63;;;;;;;29.52;37.22;101169.53;5053464;28;20610;-66
2023/08/08 11:02:57;;;;;;;4.80;1.25;;;;;;;29.62;36.91;101174.44;5052787;28;20380;-66
2023/08/08 11:05:24;;;;;;;2.85;0.98;;;;;;;29.99;36.75;101172.97;5052393;28;20021;-66
2023/08/08 11:07:50;;;;;;;4.10;1.67;;;;;;;30.65;35.72;101179.66;5052317;28;20028;-66
2023/08/08 11:10:15;;;;;;;3.25;1.13;;;;;;;31.60;35.22;101178.25;5051563;28;20103;-66
2023/08/08 11:12:41;;;;;;;4.05;1.20;;;;;;;32.20;33.89;101174.47;5053555;28;20527;-66
2023/08/08 11:15:06;;;;;;;2.55;1.20;;;;;;;32.59;34.03;101162.06;5052537;28;20028;-66
2023/08/08 11:17:32;;;;;;;8.18;1.67;;;;;;;31.99;34.71;101167.03;5052071;28;20450;-66
2023/08/08 11:19:58;;;;;;;5.32;1.08;;;;;;;31.63;34.72;101168.59;5052118;28;20021;-66